PWSweather.com
Personal Weather Stations
Station Observations
KNEPAPIL52
Papillion, NE

Papillion, NE

Lat: 41.15223312, Lon: -95.99925232

Elevation: 1089

Station Type:

Latest ConditionsUpdated 7:34:00 AM CDT Saturday, Jul 20, 2019
Currently Today's Max Today's Min Today's Average
Temperature 80.4°F26.9°C 84.7°F29.3°C 77.5°F25.3°C 80.8°F27.1°C
Dew Point 71.1°F21.7°C 76.3°F24.6°C 70.2°F21.2°C 72.3°F22.4°C
Winds 2.5 mph E4.0 kmh E 2.7 mph -4.3 kmh - - 0.8 mph 1.3 kmh
Wind Gusts 4.5 mph7.2 kmh 4.5 mph7.2 kmh - -
Humidity 73% 79% 73% 75%
Pressure 29.23 in989.8 mb 29.25 in990.5 mb 29.23 in989.8 mb -
Hour Temp Dew Point Humidity Winds Wind Gusts Pressure Precip Precip Rate Daily Precip Total
07:34 AM 80.4°F26.9°C 71.1°F21.7°C 73% 2.5 mph E4.0 kmh E 4.5 mph7.2 kmh 29.23 in989.8 mb 0.00 in0.0 mm 0.00 in0.0 mm 0.00 in0.0 mm
07:29 AM 80.1°F26.7°C 71.1°F21.7°C 74% 0.2 mph ENE0.3 kmh ENE 1.1 mph1.8 kmh 29.24 in990.2 mb 0.00 in0.0 mm 0.00 in0.0 mm 0.00 in0.0 mm
07:24 AM 79.9°F26.6°C 71.2°F21.8°C 75% 1.8 mph NNW2.9 kmh NNW 3.4 mph5.5 kmh 29.23 in989.8 mb 0.00 in0.0 mm 0.00 in0.0 mm 0.00 in0.0 mm
07:19 AM 79.5°F26.4°C 71.1°F21.7°C 75% 0.2 mph SE0.3 kmh SE 1.1 mph1.8 kmh 29.23 in989.8 mb 0.00 in0.0 mm 0.00 in0.0 mm 0.00 in0.0 mm
07:14 AM 79.2°F26.2°C 70.9°F21.6°C 76% 2.0 mph SE3.2 kmh SE 2.2 mph3.5 kmh 29.23 in989.8 mb 0.00 in0.0 mm 0.00 in0.0 mm 0.00 in0.0 mm
07:09 AM 79.2°F26.2°C 71.2°F21.8°C 77% 0.7 mph SE1.1 kmh SE 1.1 mph1.8 kmh 29.24 in990.2 mb 0.00 in0.0 mm 0.00 in0.0 mm 0.00 in0.0 mm
07:04 AM 79.0°F26.1°C 70.7°F21.5°C 76% 1.8 mph NNW2.9 kmh NNW 3.4 mph5.5 kmh 29.23 in989.8 mb 0.00 in0.0 mm 0.00 in0.0 mm 0.00 in0.0 mm
06:59 AM 78.4°F25.8°C 70.7°F21.5°C 77% Calm Calm -- 29.24 in990.2 mb 0.00 in0.0 mm 0.00 in0.0 mm 0.00 in0.0 mm
06:54 AM 78.1°F25.6°C 70.7°F21.5°C 78% 2.0 mph ESE3.2 kmh ESE 2.2 mph3.5 kmh 29.24 in990.2 mb 0.00 in0.0 mm 0.00 in0.0 mm 0.00 in0.0 mm
06:49 AM 77.7°F25.4°C 70.7°F21.5°C 79% 0.4 mph SE0.6 kmh SE 1.1 mph1.8 kmh 29.24 in990.2 mb 0.00 in0.0 mm 0.00 in0.0 mm 0.00 in0.0 mm
06:44 AM 77.5°F25.3°C 70.5°F21.4°C 79% 0.7 mph SE1.1 kmh SE 1.1 mph1.8 kmh 29.24 in990.2 mb 0.00 in0.0 mm 0.00 in0.0 mm 0.00 in0.0 mm
06:39 AM 77.5°F25.3°C 70.5°F21.4°C 79% 1.1 mph ESE1.8 kmh ESE 2.2 mph3.5 kmh 29.24 in990.2 mb 0.00 in0.0 mm 0.00 in0.0 mm 0.00 in0.0 mm
06:34 AM 77.5°F25.3°C 70.5°F21.4°C 79% 1.1 mph ENE1.8 kmh ENE 1.1 mph1.8 kmh 29.25 in990.5 mb 0.00 in0.0 mm 0.00 in0.0 mm 0.00 in0.0 mm
06:29 AM 77.5°F25.3°C 70.2°F21.2°C 78% 1.1 mph SE1.8 kmh SE 1.1 mph1.8 kmh 29.24 in990.2 mb 0.00 in0.0 mm 0.00 in0.0 mm 0.00 in0.0 mm
06:24 AM 77.7°F25.4°C 70.3°F21.3°C 78% 0.7 mph SE1.1 kmh SE 1.1 mph1.8 kmh 29.24 in990.2 mb 0.00 in0.0 mm 0.00 in0.0 mm 0.00 in0.0 mm
06:19 AM 77.9°F25.5°C 70.5°F21.4°C 78% 0.2 mph SE0.3 kmh SE 1.1 mph1.8 kmh 29.24 in990.2 mb 0.00 in0.0 mm 0.00 in0.0 mm 0.00 in0.0 mm
06:14 AM 77.9°F25.5°C 70.5°F21.4°C 78% 2.0 mph NW3.2 kmh NW 3.4 mph5.5 kmh 29.24 in990.2 mb 0.00 in0.0 mm 0.00 in0.0 mm 0.00 in0.0 mm
06:09 AM 77.9°F25.5°C 70.5°F21.4°C 78% 1.1 mph SE1.8 kmh SE 1.1 mph1.8 kmh 29.23 in989.8 mb 0.00 in0.0 mm 0.00 in0.0 mm 0.00 in0.0 mm
06:04 AM 78.1°F25.6°C 70.3°F21.3°C 77% 0.7 mph ESE1.1 kmh ESE 1.1 mph1.8 kmh 29.24 in990.2 mb 0.00 in0.0 mm 0.00 in0.0 mm 0.00 in0.0 mm
05:59 AM 78.1°F25.6°C 70.3°F21.3°C 77% 1.8 mph NNE2.9 kmh NNE 2.2 mph3.5 kmh 29.24 in990.2 mb 0.00 in0.0 mm 0.00 in0.0 mm 0.00 in0.0 mm
05:54 AM 78.3°F25.7°C 70.5°F21.4°C 77% 1.8 mph ESE2.9 kmh ESE 2.2 mph3.5 kmh 29.23 in989.8 mb 0.00 in0.0 mm 0.00 in0.0 mm 0.00 in0.0 mm
05:49 AM 78.6°F25.9°C 70.5°F21.4°C 76% Calm Calm -- 29.24 in990.2 mb 0.00 in0.0 mm 0.00 in0.0 mm 0.00 in0.0 mm
05:44 AM 78.6°F25.9°C 70.2°F21.2°C 75% 1.1 mph SE1.8 kmh SE 1.1 mph1.8 kmh 29.24 in990.2 mb 0.00 in0.0 mm 0.00 in0.0 mm 0.00 in0.0 mm
05:39 AM 78.6°F25.9°C 70.5°F21.4°C 76% 0.4 mph SE0.6 kmh SE 1.1 mph1.8 kmh 29.23 in989.8 mb 0.00 in0.0 mm 0.00 in0.0 mm 0.00 in0.0 mm
05:34 AM 78.6°F25.9°C 70.5°F21.4°C 76% Calm Calm -- 29.23 in989.8 mb 0.00 in0.0 mm 0.00 in0.0 mm 0.00 in0.0 mm
05:29 AM 78.6°F25.9°C 70.5°F21.4°C 76% 2.5 mph ESE4.0 kmh ESE 3.4 mph5.5 kmh 29.23 in989.8 mb 0.00 in0.0 mm 0.00 in0.0 mm 0.00 in0.0 mm
05:24 AM 78.8°F26.0°C 70.7°F21.5°C 76% 0.9 mph SE1.4 kmh SE 1.1 mph1.8 kmh 29.23 in989.8 mb 0.00 in0.0 mm 0.00 in0.0 mm 0.00 in0.0 mm
05:19 AM 79.0°F26.1°C 70.5°F21.4°C 75% 2.2 mph SE3.5 kmh SE 2.2 mph3.5 kmh 29.23 in989.8 mb 0.00 in0.0 mm 0.00 in0.0 mm 0.00 in0.0 mm
05:14 AM 78.8°F26.0°C 70.3°F21.3°C 75% 2.7 mph NNW4.3 kmh NNW 3.4 mph5.5 kmh 29.23 in989.8 mb 0.00 in0.0 mm 0.00 in0.0 mm 0.00 in0.0 mm
05:09 AM 79.0°F26.1°C 70.5°F21.4°C 75% 1.6 mph SE2.6 kmh SE 2.2 mph3.5 kmh 29.23 in989.8 mb 0.00 in0.0 mm 0.00 in0.0 mm 0.00 in0.0 mm
05:04 AM 79.2°F26.2°C 70.7°F21.5°C 75% 0.9 mph SE1.4 kmh SE 1.1 mph1.8 kmh 29.24 in990.2 mb 0.00 in0.0 mm 0.00 in0.0 mm 0.00 in0.0 mm
04:59 AM 79.2°F26.2°C 70.2°F21.2°C 74% 0.9 mph ESE1.4 kmh ESE 1.1 mph1.8 kmh 29.24 in990.2 mb 0.00 in0.0 mm 0.00 in0.0 mm 0.00 in0.0 mm
04:54 AM 79.2°F26.2°C 70.7°F21.5°C 75% Calm Calm -- 29.24 in990.2 mb 0.00 in0.0 mm 0.00 in0.0 mm 0.00 in0.0 mm
04:49 AM 79.2°F26.2°C 70.2°F21.2°C 74% Calm Calm -- 29.24 in990.2 mb 0.00 in0.0 mm 0.00 in0.0 mm 0.00 in0.0 mm
04:44 AM 79.3°F26.3°C 70.3°F21.3°C 74% 2.0 mph SE3.2 kmh SE 3.4 mph5.5 kmh 29.24 in990.2 mb 0.00 in0.0 mm 0.00 in0.0 mm 0.00 in0.0 mm
04:39 AM 79.3°F26.3°C 70.3°F21.3°C 74% 1.3 mph E2.1 kmh E 2.2 mph3.5 kmh 29.24 in990.2 mb 0.00 in0.0 mm 0.00 in0.0 mm 0.00 in0.0 mm
04:34 AM 79.3°F26.3°C 70.3°F21.3°C 74% 1.8 mph SE2.9 kmh SE 2.2 mph3.5 kmh 29.24 in990.2 mb 0.00 in0.0 mm 0.00 in0.0 mm 0.00 in0.0 mm
04:29 AM 79.3°F26.3°C 70.3°F21.3°C 74% 1.3 mph ESE2.1 kmh ESE 2.2 mph3.5 kmh 29.25 in990.5 mb 0.00 in0.0 mm 0.00 in0.0 mm 0.00 in0.0 mm
04:24 AM 79.5°F26.4°C 70.5°F21.4°C 74% 1.1 mph ESE1.8 kmh ESE 1.1 mph1.8 kmh 29.24 in990.2 mb 0.00 in0.0 mm 0.00 in0.0 mm 0.00 in0.0 mm
04:19 AM 79.5°F26.4°C 70.5°F21.4°C 74% 0.2 mph ESE0.3 kmh ESE 1.1 mph1.8 kmh 29.24 in990.2 mb 0.00 in0.0 mm 0.00 in0.0 mm 0.00 in0.0 mm
04:14 AM 79.7°F26.5°C 70.7°F21.5°C 74% 0.7 mph SE1.1 kmh SE 1.1 mph1.8 kmh 29.24 in990.2 mb 0.00 in0.0 mm 0.00 in0.0 mm 0.00 in0.0 mm
04:09 AM 79.7°F26.5°C 70.7°F21.5°C 74% 1.1 mph SE1.8 kmh SE 2.2 mph3.5 kmh 29.24 in990.2 mb 0.00 in0.0 mm 0.00 in0.0 mm 0.00 in0.0 mm
04:04 AM 79.7°F26.5°C 71.2°F21.8°C 75% 0.4 mph SE0.6 kmh SE 1.1 mph1.8 kmh 29.24 in990.2 mb 0.00 in0.0 mm 0.00 in0.0 mm 0.00 in0.0 mm
03:59 AM 79.9°F26.6°C 71.2°F21.8°C 75% 0.2 mph SE0.3 kmh SE 1.1 mph1.8 kmh 29.24 in990.2 mb 0.00 in0.0 mm 0.00 in0.0 mm 0.00 in0.0 mm
03:54 AM 80.1°F26.7°C 71.4°F21.9°C 75% Calm Calm -- 29.24 in990.2 mb 0.00 in0.0 mm 0.00 in0.0 mm 0.00 in0.0 mm
03:49 AM 80.2°F26.8°C 71.2°F21.8°C 74% 0.4 mph SE0.6 kmh SE 1.1 mph1.8 kmh 29.24 in990.2 mb 0.00 in0.0 mm 0.00 in0.0 mm 0.00 in0.0 mm
03:44 AM 80.4°F26.9°C 71.4°F21.9°C 74% 0.4 mph SE0.6 kmh SE 1.1 mph1.8 kmh 29.24 in990.2 mb 0.00 in0.0 mm 0.00 in0.0 mm 0.00 in0.0 mm
03:39 AM 80.6°F27.0°C 71.6°F22.0°C 74% Calm Calm -- 29.24 in990.2 mb 0.00 in0.0 mm 0.00 in0.0 mm 0.00 in0.0 mm
03:34 AM 80.6°F27.0°C 71.6°F22.0°C 74% Calm Calm -- 29.24 in990.2 mb 0.00 in0.0 mm 0.00 in0.0 mm 0.00 in0.0 mm
03:29 AM 80.6°F27.0°C 71.6°F22.0°C 74% 1.1 mph SE1.8 kmh SE 1.1 mph1.8 kmh 29.24 in990.2 mb 0.00 in0.0 mm 0.00 in0.0 mm 0.00 in0.0 mm
03:24 AM 80.6°F27.0°C 71.6°F22.0°C 74% Calm Calm -- 29.24 in990.2 mb 0.00 in0.0 mm 0.00 in0.0 mm 0.00 in0.0 mm
03:19 AM 80.8°F27.1°C 71.8°F22.1°C 74% Calm Calm -- 29.25 in990.5 mb 0.00 in0.0 mm 0.00 in0.0 mm 0.00 in0.0 mm
03:14 AM 81.0°F27.2°C 72.0°F22.2°C 74% 0.2 mph SE0.3 kmh SE 1.1 mph1.8 kmh 29.24 in990.2 mb 0.00 in0.0 mm 0.00 in0.0 mm 0.00 in0.0 mm
03:09 AM 81.1°F27.3°C 72.1°F22.3°C 74% 0.2 mph ESE0.3 kmh ESE 1.1 mph1.8 kmh 29.24 in990.2 mb 0.00 in0.0 mm 0.00 in0.0 mm 0.00 in0.0 mm
03:04 AM 81.3°F27.4°C 72.3°F22.4°C 74% 0.2 mph ESE0.3 kmh ESE 1.1 mph1.8 kmh 29.24 in990.2 mb 0.00 in0.0 mm 0.00 in0.0 mm 0.00 in0.0 mm
02:59 AM 81.5°F27.5°C 72.0°F22.2°C 73% 1.8 mph ESE2.9 kmh ESE 2.2 mph3.5 kmh 29.25 in990.5 mb 0.00 in0.0 mm 0.00 in0.0 mm 0.00 in0.0 mm
02:54 AM 81.7°F27.6°C 72.7°F22.6°C 74% Calm Calm -- 29.25 in990.5 mb 0.00 in0.0 mm 0.00 in0.0 mm 0.00 in0.0 mm
02:49 AM 81.9°F27.7°C 72.3°F22.4°C 73% 1.3 mph E2.1 kmh E 2.2 mph3.5 kmh 29.24 in990.2 mb 0.00 in0.0 mm 0.00 in0.0 mm 0.00 in0.0 mm
02:44 AM 81.9°F27.7°C 72.9°F22.7°C 74% 0.4 mph ESE0.6 kmh ESE 1.1 mph1.8 kmh 29.24 in990.2 mb 0.00 in0.0 mm 0.00 in0.0 mm 0.00 in0.0 mm
02:39 AM 82.2°F27.9°C 73.2°F22.9°C 74% 0.2 mph SE0.3 kmh SE 1.1 mph1.8 kmh 29.25 in990.5 mb 0.00 in0.0 mm 0.00 in0.0 mm 0.00 in0.0 mm
02:34 AM 82.4°F28.0°C 72.9°F22.7°C 73% 1.1 mph ESE1.8 kmh ESE 1.1 mph1.8 kmh 29.25 in990.5 mb 0.00 in0.0 mm 0.00 in0.0 mm 0.00 in0.0 mm
02:29 AM 82.4°F28.0°C 73.4°F23.0°C 74% Calm Calm -- 29.25 in990.5 mb 0.00 in0.0 mm 0.00 in0.0 mm 0.00 in0.0 mm
02:24 AM 82.4°F28.0°C 73.4°F23.0°C 74% 1.6 mph N2.6 kmh N 2.2 mph3.5 kmh 29.24 in990.2 mb 0.00 in0.0 mm 0.00 in0.0 mm 0.00 in0.0 mm
02:19 AM 82.2°F27.9°C 73.2°F22.9°C 74% 0.4 mph SE0.6 kmh SE 1.1 mph1.8 kmh 29.24 in990.2 mb 0.00 in0.0 mm 0.00 in0.0 mm 0.00 in0.0 mm
02:14 AM 82.6°F28.1°C 73.6°F23.1°C 74% Calm Calm -- 29.25 in990.5 mb 0.00 in0.0 mm 0.00 in0.0 mm 0.00 in0.0 mm
02:09 AM 82.6°F28.1°C 73.6°F23.1°C 74% 0.9 mph SE1.4 kmh SE 1.1 mph1.8 kmh 29.24 in990.2 mb 0.00 in0.0 mm 0.00 in0.0 mm 0.00 in0.0 mm
02:04 AM 82.8°F28.2°C 73.6°F23.1°C 74% 0.2 mph SE0.3 kmh SE 1.1 mph1.8 kmh 29.24 in990.2 mb 0.00 in0.0 mm 0.00 in0.0 mm 0.00 in0.0 mm
01:59 AM 82.9°F28.3°C 73.8°F23.2°C 74% Calm Calm -- 29.24 in990.2 mb 0.00 in0.0 mm 0.00 in0.0 mm 0.00 in0.0 mm
01:54 AM 82.8°F28.2°C 74.1°F23.4°C 75% Calm Calm -- 29.24 in990.2 mb 0.00 in0.0 mm 0.00 in0.0 mm 0.00 in0.0 mm
01:49 AM 82.9°F28.3°C 74.3°F23.5°C 75% 1.8 mph ENE2.9 kmh ENE 2.2 mph3.5 kmh 29.24 in990.2 mb 0.00 in0.0 mm 0.00 in0.0 mm 0.00 in0.0 mm
01:44 AM 82.9°F28.3°C 74.3°F23.5°C 75% 1.3 mph SE2.1 kmh SE 2.2 mph3.5 kmh 29.24 in990.2 mb 0.00 in0.0 mm 0.00 in0.0 mm 0.00 in0.0 mm
01:39 AM 83.1°F28.4°C 74.5°F23.6°C 75% 2.2 mph SE3.5 kmh SE 2.2 mph3.5 kmh 29.24 in990.2 mb 0.00 in0.0 mm 0.00 in0.0 mm 0.00 in0.0 mm
01:34 AM 83.1°F28.4°C 74.5°F23.6°C 75% 0.7 mph SSE1.1 kmh SSE 1.1 mph1.8 kmh 29.24 in990.2 mb 0.00 in0.0 mm 0.00 in0.0 mm 0.00 in0.0 mm
01:29 AM 83.1°F28.4°C 74.8°F23.8°C 76% 1.1 mph SE1.8 kmh SE 2.2 mph3.5 kmh 29.24 in990.2 mb 0.00 in0.0 mm 0.00 in0.0 mm 0.00 in0.0 mm
01:24 AM 83.3°F28.5°C 75.0°F23.9°C 76% 0.2 mph SE0.3 kmh SE 1.1 mph1.8 kmh 29.24 in990.2 mb 0.00 in0.0 mm 0.00 in0.0 mm 0.00 in0.0 mm
01:19 AM 83.5°F28.6°C 75.2°F24.0°C 76% Calm Calm -- 29.24 in990.2 mb 0.00 in0.0 mm 0.00 in0.0 mm 0.00 in0.0 mm
01:14 AM 83.5°F28.6°C 75.2°F24.0°C 76% 1.3 mph N2.1 kmh N 2.2 mph3.5 kmh 29.24 in990.2 mb 0.00 in0.0 mm 0.00 in0.0 mm 0.00 in0.0 mm
01:09 AM 83.5°F28.6°C 75.2°F24.0°C 76% 1.1 mph SE1.8 kmh SE 2.2 mph3.5 kmh 29.24 in990.2 mb 0.00 in0.0 mm 0.00 in0.0 mm 0.00 in0.0 mm
01:04 AM 83.5°F28.6°C 75.2°F24.0°C 76% 0.2 mph SSE0.3 kmh SSE 1.1 mph1.8 kmh 29.24 in990.2 mb 0.00 in0.0 mm 0.00 in0.0 mm 0.00 in0.0 mm
12:59 AM 83.7°F28.7°C 75.4°F24.1°C 76% 0.7 mph NE1.1 kmh NE 2.2 mph3.5 kmh 29.24 in990.2 mb 0.00 in0.0 mm 0.00 in0.0 mm 0.00 in0.0 mm
12:54 AM 83.7°F28.7°C 75.4°F24.1°C 76% 1.1 mph ENE1.8 kmh ENE 2.2 mph3.5 kmh 29.24 in990.2 mb 0.00 in0.0 mm 0.00 in0.0 mm 0.00 in0.0 mm
12:49 AM 83.7°F28.7°C 75.4°F24.1°C 76% 0.9 mph SE1.4 kmh SE 1.1 mph1.8 kmh 29.23 in989.8 mb 0.00 in0.0 mm 0.00 in0.0 mm 0.00 in0.0 mm
12:44 AM 83.8°F28.8°C 75.9°F24.4°C 77% 2.2 mph E3.5 kmh E 3.4 mph5.5 kmh 29.24 in990.2 mb 0.00 in0.0 mm 0.00 in0.0 mm 0.00 in0.0 mm
12:39 AM 83.8°F28.8°C 75.6°F24.2°C 76% Calm Calm -- 29.23 in989.8 mb 0.00 in0.0 mm 0.00 in0.0 mm 0.00 in0.0 mm
12:34 AM 84.0°F28.9°C 75.7°F24.3°C 76% 1.3 mph E2.1 kmh E 2.2 mph3.5 kmh 29.23 in989.8 mb 0.00 in0.0 mm 0.00 in0.0 mm 0.00 in0.0 mm
12:29 AM 84.0°F28.9°C 76.1°F24.5°C 77% 0.2 mph SE0.3 kmh SE 1.1 mph1.8 kmh 29.24 in990.2 mb 0.00 in0.0 mm 0.00 in0.0 mm 0.00 in0.0 mm
12:24 AM 84.2°F29.0°C 75.9°F24.4°C 76% Calm Calm -- 29.23 in989.8 mb 0.00 in0.0 mm 0.00 in0.0 mm 0.00 in0.0 mm
12:19 AM 84.4°F29.1°C 76.1°F24.5°C 76% Calm Calm -- 29.24 in990.2 mb 0.00 in0.0 mm 0.00 in0.0 mm 0.00 in0.0 mm
12:14 AM 84.4°F29.1°C 76.1°F24.5°C 76% 0.2 mph SE0.3 kmh SE 1.1 mph1.8 kmh 29.24 in990.2 mb 0.00 in0.0 mm 0.00 in0.0 mm 0.00 in0.0 mm
12:09 AM 84.6°F29.2°C 76.3°F24.6°C 76% Calm Calm -- 29.24 in990.2 mb 0.00 in0.0 mm 0.00 in0.0 mm 0.00 in0.0 mm
12:04 AM 84.7°F29.3°C 75.9°F24.4°C 75% 2.2 mph SE3.5 kmh SE 3.4 mph5.5 kmh 29.23 in989.8 mb 0.00 in0.0 mm 0.00 in0.0 mm 0.00 in0.0 mm